sensor_id;sensor_type;location;lat;lon;timestamp;P1;durP1;ratioP1;P2;durP2;ratioP2
14876;SDS011;69691;48.172;17.070;2023-11-22T00:01:37;73.65;;;38.47;;
14876;SDS011;69691;48.172;17.070;2023-11-22T00:04:03;64.60;;;36.28;;
14876;SDS011;69691;48.172;17.070;2023-11-22T00:06:29;68.78;;;36.10;;
14876;SDS011;69691;48.172;17.070;2023-11-22T00:08:55;60.05;;;34.60;;
14876;SDS011;69691;48.172;17.070;2023-11-22T00:11:21;67.25;;;36.70;;
14876;SDS011;69691;48.172;17.070;2023-11-22T00:13:47;67.35;;;35.28;;
14876;SDS011;69691;48.172;17.070;2023-11-22T00:16:14;62.53;;;34.10;;
14876;SDS011;69691;48.172;17.070;2023-11-22T00:18:41;56.25;;;32.58;;
14876;SDS011;69691;48.172;17.070;2023-11-22T00:21:07;57.50;;;33.78;;
14876;SDS011;69691;48.172;17.070;2023-11-22T00:23:33;53.83;;;33.08;;
14876;SDS011;69691;48.172;17.070;2023-11-22T00:25:58;59.22;;;33.95;;
14876;SDS011;69691;48.172;17.070;2023-11-22T00:28:24;59.28;;;32.33;;
14876;SDS011;69691;48.172;17.070;2023-11-22T00:30:50;57.40;;;30.85;;
14876;SDS011;69691;48.172;17.070;2023-11-22T00:33:16;57.70;;;32.20;;
14876;SDS011;69691;48.172;17.070;2023-11-22T00:35:44;55.00;;;32.25;;
14876;SDS011;69691;48.172;17.070;2023-11-22T00:38:10;57.38;;;32.60;;
14876;SDS011;69691;48.172;17.070;2023-11-22T00:40:35;57.22;;;32.47;;
14876;SDS011;69691;48.172;17.070;2023-11-22T00:43:01;51.67;;;31.50;;
14876;SDS011;69691;48.172;17.070;2023-11-22T00:45:28;51.92;;;32.05;;
14876;SDS011;69691;48.172;17.070;2023-11-22T00:47:55;52.38;;;31.98;;
14876;SDS011;69691;48.172;17.070;2023-11-22T00:50:20;50.78;;;30.42;;
14876;SDS011;69691;48.172;17.070;2023-11-22T00:52:47;55.90;;;31.75;;
14876;SDS011;69691;48.172;17.070;2023-11-22T00:55:14;52.50;;;31.35;;
14876;SDS011;69691;48.172;17.070;2023-11-22T00:57:40;46.53;;;29.40;;
14876;SDS011;69691;48.172;17.070;2023-11-22T01:00:06;53.28;;;29.88;;
14876;SDS011;69691;48.172;17.070;2023-11-22T01:02:35;51.28;;;29.25;;
14876;SDS011;69691;48.172;17.070;2023-11-22T01:05:07;44.95;;;28.27;;
14876;SDS011;69691;48.172;17.070;2023-11-22T01:07:37;48.15;;;28.90;;
14876;SDS011;69691;48.172;17.070;2023-11-22T01:10:04;51.88;;;29.17;;
14876;SDS011;69691;48.172;17.070;2023-11-22T01:12:31;50.38;;;28.67;;
14876;SDS011;69691;48.172;17.070;2023-11-22T01:14:57;48.00;;;30.23;;
14876;SDS011;69691;48.172;17.070;2023-11-22T01:17:23;43.72;;;29.13;;
14876;SDS011;69691;48.172;17.070;2023-11-22T01:19:49;47.42;;;27.95;;
14876;SDS011;69691;48.172;17.070;2023-11-22T01:22:18;36.85;;;27.27;;
14876;SDS011;69691;48.172;17.070;2023-11-22T01:24:44;46.05;;;29.40;;
14876;SDS011;69691;48.172;17.070;2023-11-22T01:27:10;45.35;;;27.67;;
14876;SDS011;69691;48.172;17.070;2023-11-22T01:29:36;49.17;;;29.08;;
14876;SDS011;69691;48.172;17.070;2023-11-22T01:32:02;52.08;;;29.67;;
14876;SDS011;69691;48.172;17.070;2023-11-22T01:34:28;47.28;;;29.20;;
14876;SDS011;69691;48.172;17.070;2023-11-22T01:36:54;43.80;;;27.65;;
14876;SDS011;69691;48.172;17.070;2023-11-22T01:39:20;46.13;;;28.67;;
14876;SDS011;69691;48.172;17.070;2023-11-22T01:41:46;49.65;;;28.95;;
14876;SDS011;69691;48.172;17.070;2023-11-22T01:44:15;45.67;;;27.40;;
14876;SDS011;69691;48.172;17.070;2023-11-22T01:46:41;37.47;;;24.83;;
14876;SDS011;69691;48.172;17.070;2023-11-22T01:49:09;42.97;;;24.55;;
14876;SDS011;69691;48.172;17.070;2023-11-22T01:51:36;40.67;;;24.40;;
14876;SDS011;69691;48.172;17.070;2023-11-22T01:54:03;38.10;;;23.08;;
14876;SDS011;69691;48.172;17.070;2023-11-22T01:56:35;31.90;;;23.10;;
14876;SDS011;69691;48.172;17.070;2023-11-22T01:59:02;35.00;;;22.10;;
14876;SDS011;69691;48.172;17.070;2023-11-22T02:01:30;34.58;;;21.13;;
14876;SDS011;69691;48.172;17.070;2023-11-22T02:03:57;31.63;;;21.30;;
14876;SDS011;69691;48.172;17.070;2023-11-22T02:06:23;29.40;;;20.23;;
14876;SDS011;69691;48.172;17.070;2023-11-22T02:08:51;27.35;;;18.38;;
14876;SDS011;69691;48.172;17.070;2023-11-22T02:11:17;30.83;;;19.55;;
14876;SDS011;69691;48.172;17.070;2023-11-22T02:13:50;28.00;;;17.40;;
14876;SDS011;69691;48.172;17.070;2023-11-22T02:16:19;22.10;;;16.10;;
14876;SDS011;69691;48.172;17.070;2023-11-22T02:18:48;22.25;;;16.27;;
14876;SDS011;69691;48.172;17.070;2023-11-22T02:21:18;21.50;;;15.38;;
14876;SDS011;69691;48.172;17.070;2023-11-22T02:23:44;18.98;;;13.85;;
14876;SDS011;69691;48.172;17.070;2023-11-22T02:26:10;19.00;;;12.02;;
14876;SDS011;69691;48.172;17.070;2023-11-22T02:28:35;19.85;;;10.95;;
14876;SDS011;69691;48.172;17.070;2023-11-22T02:31:01;12.60;;;9.90;;
14876;SDS011;69691;48.172;17.070;2023-11-22T02:33:28;17.02;;;10.38;;
14876;SDS011;69691;48.172;17.070;2023-11-22T02:35:54;11.40;;;8.52;;
14876;SDS011;69691;48.172;17.070;2023-11-22T02:38:20;10.43;;;8.05;;
14876;SDS011;69691;48.172;17.070;2023-11-22T02:40:46;12.02;;;8.57;;
14876;SDS011;69691;48.172;17.070;2023-11-22T02:43:12;11.48;;;7.93;;
14876;SDS011;69691;48.172;17.070;2023-11-22T02:45:37;10.52;;;7.82;;
14876;SDS011;69691;48.172;17.070;2023-11-22T02:48:04;7.80;;;7.00;;
14876;SDS011;69691;48.172;17.070;2023-11-22T02:50:34;11.43;;;7.63;;
14876;SDS011;69691;48.172;17.070;2023-11-22T02:53:03;10.60;;;6.82;;
14876;SDS011;69691;48.172;17.070;2023-11-22T02:55:29;8.35;;;6.95;;
14876;SDS011;69691;48.172;17.070;2023-11-22T02:57:55;8.05;;;7.25;;
14876;SDS011;69691;48.172;17.070;2023-11-22T03:00:21;8.88;;;6.93;;
14876;SDS011;69691;48.172;17.070;2023-11-22T03:02:47;8.95;;;7.03;;
14876;SDS011;69691;48.172;17.070;2023-11-22T03:05:19;12.90;;;6.68;;
14876;SDS011;69691;48.172;17.070;2023-11-22T03:07:46;8.20;;;6.80;;
14876;SDS011;69691;48.172;17.070;2023-11-22T03:10:12;8.65;;;6.95;;
14876;SDS011;69691;48.172;17.070;2023-11-22T03:12:38;8.63;;;6.63;;
14876;SDS011;69691;48.172;17.070;2023-11-22T03:15:04;8.38;;;6.80;;
14876;SDS011;69691;48.172;17.070;2023-11-22T03:17:31;9.07;;;6.70;;
14876;SDS011;69691;48.172;17.070;2023-11-22T03:19:59;8.68;;;6.45;;
14876;SDS011;69691;48.172;17.070;2023-11-22T03:22:26;7.95;;;6.32;;
14876;SDS011;69691;48.172;17.070;2023-11-22T03:24:55;7.65;;;6.57;;
14876;SDS011;69691;48.172;17.070;2023-11-22T03:27:21;7.28;;;6.55;;
14876;SDS011;69691;48.172;17.070;2023-11-22T03:29:48;8.50;;;6.93;;
14876;SDS011;69691;48.172;17.070;2023-11-22T03:32:14;8.48;;;6.50;;
14876;SDS011;69691;48.172;17.070;2023-11-22T03:34:40;10.13;;;7.25;;
14876;SDS011;69691;48.172;17.070;2023-11-22T03:37:06;8.57;;;6.70;;
14876;SDS011;69691;48.172;17.070;2023-11-22T03:39:32;8.60;;;7.35;;
14876;SDS011;69691;48.172;17.070;2023-11-22T03:41:59;10.98;;;7.43;;
14876;SDS011;69691;48.172;17.070;2023-11-22T03:44:24;9.60;;;7.32;;
14876;SDS011;69691;48.172;17.070;2023-11-22T03:46:50;10.82;;;6.70;;
14876;SDS011;69691;48.172;17.070;2023-11-22T03:49:16;7.93;;;6.75;;
14876;SDS011;69691;48.172;17.070;2023-11-22T03:51:43;8.82;;;7.05;;
14876;SDS011;69691;48.172;17.070;2023-11-22T03:54:08;7.15;;;6.40;;
14876;SDS011;69691;48.172;17.070;2023-11-22T03:56:36;7.85;;;6.85;;
14876;SDS011;69691;48.172;17.070;2023-11-22T03:59:02;8.25;;;7.10;;
14876;SDS011;69691;48.172;17.070;2023-11-22T04:01:28;8.98;;;7.18;;
14876;SDS011;69691;48.172;17.070;2023-11-22T04:03:54;8.50;;;7.57;;
14876;SDS011;69691;48.172;17.070;2023-11-22T04:06:20;11.45;;;7.57;;
14876;SDS011;69691;48.172;17.070;2023-11-22T04:08:46;9.27;;;7.55;;
14876;SDS011;69691;48.172;17.070;2023-11-22T04:11:13;10.27;;;8.63;;
14876;SDS011;69691;48.172;17.070;2023-11-22T04:13:39;12.65;;;8.85;;
14876;SDS011;69691;48.172;17.070;2023-11-22T04:16:05;11.68;;;8.45;;
14876;SDS011;69691;48.172;17.070;2023-11-22T04:18:37;10.07;;;8.65;;
14876;SDS011;69691;48.172;17.070;2023-11-22T04:21:05;9.82;;;8.57;;
14876;SDS011;69691;48.172;17.070;2023-11-22T04:23:32;10.95;;;8.25;;
14876;SDS011;69691;48.172;17.070;2023-11-22T04:25:59;9.88;;;8.52;;
14876;SDS011;69691;48.172;17.070;2023-11-22T04:28:25;9.80;;;7.20;;
14876;SDS011;69691;48.172;17.070;2023-11-22T04:30:52;9.35;;;7.57;;
14876;SDS011;69691;48.172;17.070;2023-11-22T04:33:18;9.40;;;7.75;;
14876;SDS011;69691;48.172;17.070;2023-11-22T04:35:47;9.52;;;7.50;;
14876;SDS011;69691;48.172;17.070;2023-11-22T04:38:13;11.10;;;8.20;;
14876;SDS011;69691;48.172;17.070;2023-11-22T04:40:39;8.98;;;6.95;;
14876;SDS011;69691;48.172;17.070;2023-11-22T04:43:07;9.25;;;6.88;;
14876;SDS011;69691;48.172;17.070;2023-11-22T04:45:33;12.10;;;7.25;;
14876;SDS011;69691;48.172;17.070;2023-11-22T04:47:59;12.27;;;6.85;;
14876;SDS011;69691;48.172;17.070;2023-11-22T04:50:26;8.18;;;7.00;;
14876;SDS011;69691;48.172;17.070;2023-11-22T04:52:51;7.95;;;6.22;;
14876;SDS011;69691;48.172;17.070;2023-11-22T04:55:17;7.72;;;6.40;;
14876;SDS011;69691;48.172;17.070;2023-11-22T04:57:50;9.77;;;6.93;;
14876;SDS011;69691;48.172;17.070;2023-11-22T05:00:17;8.07;;;6.68;;
14876;SDS011;69691;48.172;17.070;2023-11-22T05:02:43;7.30;;;6.20;;
14876;SDS011;69691;48.172;17.070;2023-11-22T05:05:09;7.78;;;6.80;;
14876;SDS011;69691;48.172;17.070;2023-11-22T05:07:37;6.38;;;5.78;;
14876;SDS011;69691;48.172;17.070;2023-11-22T05:10:04;8.82;;;7.20;;
14876;SDS011;69691;48.172;17.070;2023-11-22T05:12:31;7.03;;;6.30;;
14876;SDS011;69691;48.172;17.070;2023-11-22T05:14:58;9.57;;;7.22;;
14876;SDS011;69691;48.172;17.070;2023-11-22T05:17:23;12.32;;;6.90;;
14876;SDS011;69691;48.172;17.070;2023-11-22T05:19:49;9.98;;;7.50;;
14876;SDS011;69691;48.172;17.070;2023-11-22T05:22:16;8.75;;;7.50;;
14876;SDS011;69691;48.172;17.070;2023-11-22T05:24:42;10.00;;;7.50;;
14876;SDS011;69691;48.172;17.070;2023-11-22T05:27:09;8.90;;;6.32;;
14876;SDS011;69691;48.172;17.070;2023-11-22T05:29:35;10.73;;;6.18;;
14876;SDS011;69691;48.172;17.070;2023-11-22T05:32:01;10.45;;;7.10;;
14876;SDS011;69691;48.172;17.070;2023-11-22T05:34:28;10.02;;;6.85;;
14876;SDS011;69691;48.172;17.070;2023-11-22T05:36:54;9.02;;;6.63;;
14876;SDS011;69691;48.172;17.070;2023-11-22T05:39:20;9.48;;;6.88;;
14876;SDS011;69691;48.172;17.070;2023-11-22T05:41:53;14.25;;;7.05;;
14876;SDS011;69691;48.172;17.070;2023-11-22T05:44:19;9.68;;;7.53;;
14876;SDS011;69691;48.172;17.070;2023-11-22T05:46:45;9.68;;;7.18;;
14876;SDS011;69691;48.172;17.070;2023-11-22T05:49:11;12.20;;;7.88;;
14876;SDS011;69691;48.172;17.070;2023-11-22T05:51:37;12.45;;;8.00;;
14876;SDS011;69691;48.172;17.070;2023-11-22T05:54:03;12.18;;;7.20;;
14876;SDS011;69691;48.172;17.070;2023-11-22T05:56:29;8.52;;;6.90;;
14876;SDS011;69691;48.172;17.070;2023-11-22T05:58:55;10.60;;;7.38;;
14876;SDS011;69691;48.172;17.070;2023-11-22T06:01:22;11.75;;;7.10;;
14876;SDS011;69691;48.172;17.070;2023-11-22T06:03:48;11.48;;;7.80;;
14876;SDS011;69691;48.172;17.070;2023-11-22T06:06:14;12.18;;;7.78;;
14876;SDS011;69691;48.172;17.070;2023-11-22T06:08:40;10.65;;;8.00;;
14876;SDS011;69691;48.172;17.070;2023-11-22T06:11:06;10.90;;;7.85;;
14876;SDS011;69691;48.172;17.070;2023-11-22T06:13:32;11.43;;;7.40;;
14876;SDS011;69691;48.172;17.070;2023-11-22T06:15:58;10.40;;;7.60;;
14876;SDS011;69691;48.172;17.070;2023-11-22T06:18:24;12.57;;;7.93;;
14876;SDS011;69691;48.172;17.070;2023-11-22T06:20:55;9.25;;;7.30;;
14876;SDS011;69691;48.172;17.070;2023-11-22T06:23:22;10.50;;;7.07;;
14876;SDS011;69691;48.172;17.070;2023-11-22T06:25:47;12.45;;;8.15;;
14876;SDS011;69691;48.172;17.070;2023-11-22T06:28:13;11.95;;;8.20;;
14876;SDS011;69691;48.172;17.070;2023-11-22T06:30:39;9.50;;;7.25;;
14876;SDS011;69691;48.172;17.070;2023-11-22T06:33:05;10.10;;;7.57;;
14876;SDS011;69691;48.172;17.070;2023-11-22T06:35:32;13.27;;;7.30;;
14876;SDS011;69691;48.172;17.070;2023-11-22T06:37:58;11.40;;;7.40;;
14876;SDS011;69691;48.172;17.070;2023-11-22T06:40:24;8.82;;;7.20;;
14876;SDS011;69691;48.172;17.070;2023-11-22T06:42:50;11.50;;;8.05;;
14876;SDS011;69691;48.172;17.070;2023-11-22T06:45:16;13.43;;;7.30;;
14876;SDS011;69691;48.172;17.070;2023-11-22T06:47:43;10.15;;;7.50;;
14876;SDS011;69691;48.172;17.070;2023-11-22T06:50:09;13.43;;;8.18;;
14876;SDS011;69691;48.172;17.070;2023-11-22T06:52:36;10.98;;;7.60;;
14876;SDS011;69691;48.172;17.070;2023-11-22T06:55:06;11.38;;;7.55;;
14876;SDS011;69691;48.172;17.070;2023-11-22T06:57:34;11.90;;;7.22;;
14876;SDS011;69691;48.172;17.070;2023-11-22T07:00:03;9.63;;;6.82;;
14876;SDS011;69691;48.172;17.070;2023-11-22T07:02:33;8.15;;;6.72;;
14876;SDS011;69691;48.172;17.070;2023-11-22T07:05:02;8.98;;;6.10;;
14876;SDS011;69691;48.172;17.070;2023-11-22T07:07:33;21.02;;;6.97;;
14876;SDS011;69691;48.172;17.070;2023-11-22T07:10:03;13.07;;;7.53;;
14876;SDS011;69691;48.172;17.070;2023-11-22T07:12:33;10.30;;;6.60;;
14876;SDS011;69691;48.172;17.070;2023-11-22T07:15:02;23.17;;;7.43;;
14876;SDS011;69691;48.172;17.070;2023-11-22T07:17:30;14.07;;;7.00;;
14876;SDS011;69691;48.172;17.070;2023-11-22T07:19:58;13.02;;;7.65;;
14876;SDS011;69691;48.172;17.070;2023-11-22T07:22:26;10.25;;;6.97;;
14876;SDS011;69691;48.172;17.070;2023-11-22T07:24:52;11.82;;;7.25;;
14876;SDS011;69691;48.172;17.070;2023-11-22T07:27:19;11.80;;;8.57;;
14876;SDS011;69691;48.172;17.070;2023-11-22T07:29:46;12.70;;;7.85;;
14876;SDS011;69691;48.172;17.070;2023-11-22T07:32:12;10.15;;;7.47;;
14876;SDS011;69691;48.172;17.070;2023-11-22T07:34:39;11.30;;;7.60;;
14876;SDS011;69691;48.172;17.070;2023-11-22T07:37:06;11.63;;;7.68;;
14876;SDS011;69691;48.172;17.070;2023-11-22T07:39:33;14.25;;;8.38;;
14876;SDS011;69691;48.172;17.070;2023-11-22T07:42:03;11.00;;;7.68;;
14876;SDS011;69691;48.172;17.070;2023-11-22T07:44:33;10.55;;;8.13;;
14876;SDS011;69691;48.172;17.070;2023-11-22T07:47:01;17.08;;;8.70;;
14876;SDS011;69691;48.172;17.070;2023-11-22T07:49:27;9.55;;;8.25;;
14876;SDS011;69691;48.172;17.070;2023-11-22T07:51:54;10.52;;;8.63;;
14876;SDS011;69691;48.172;17.070;2023-11-22T07:54:21;11.07;;;8.35;;
14876;SDS011;69691;48.172;17.070;2023-11-22T07:56:51;9.80;;;7.82;;
14876;SDS011;69691;48.172;17.070;2023-11-22T07:59:21;11.10;;;8.18;;
14876;SDS011;69691;48.172;17.070;2023-11-22T08:01:47;12.60;;;8.63;;
14876;SDS011;69691;48.172;17.070;2023-11-22T08:04:14;10.88;;;8.55;;
14876;SDS011;69691;48.172;17.070;2023-11-22T08:06:42;12.65;;;9.13;;
14876;SDS011;69691;48.172;17.070;2023-11-22T08:09:08;12.20;;;8.32;;
14876;SDS011;69691;48.172;17.070;2023-11-22T08:11:35;13.82;;;8.82;;
14876;SDS011;69691;48.172;17.070;2023-11-22T08:14:02;11.52;;;8.98;;
14876;SDS011;69691;48.172;17.070;2023-11-22T08:16:29;13.30;;;9.90;;
14876;SDS011;69691;48.172;17.070;2023-11-22T08:18:54;19.08;;;16.42;;
14876;SDS011;69691;48.172;17.070;2023-11-22T08:21:22;18.77;;;13.43;;
14876;SDS011;69691;48.172;17.070;2023-11-22T08:23:48;18.10;;;13.15;;
14876;SDS011;69691;48.172;17.070;2023-11-22T08:26:14;18.50;;;16.48;;
14876;SDS011;69691;48.172;17.070;2023-11-22T08:28:41;18.08;;;15.93;;
14876;SDS011;69691;48.172;17.070;2023-11-22T08:31:07;21.17;;;18.33;;
14876;SDS011;69691;48.172;17.070;2023-11-22T08:33:36;20.48;;;18.30;;
14876;SDS011;69691;48.172;17.070;2023-11-22T08:36:06;21.52;;;19.23;;
14876;SDS011;69691;48.172;17.070;2023-11-22T08:38:37;18.85;;;16.80;;
14876;SDS011;69691;48.172;17.070;2023-11-22T08:41:06;16.08;;;14.10;;
14876;SDS011;69691;48.172;17.070;2023-11-22T08:43:33;22.58;;;15.82;;
14876;SDS011;69691;48.172;17.070;2023-11-22T08:45:59;21.73;;;16.17;;
14876;SDS011;69691;48.172;17.070;2023-11-22T08:48:29;19.73;;;16.90;;
14876;SDS011;69691;48.172;17.070;2023-11-22T08:50:56;20.85;;;15.00;;
14876;SDS011;69691;48.172;17.070;2023-11-22T08:53:22;17.73;;;15.00;;
14876;SDS011;69691;48.172;17.070;2023-11-22T08:55:48;18.85;;;14.57;;
14876;SDS011;69691;48.172;17.070;2023-11-22T08:58:14;20.40;;;15.80;;
14876;SDS011;69691;48.172;17.070;2023-11-22T09:00:40;21.20;;;15.13;;
14876;SDS011;69691;48.172;17.070;2023-11-22T09:03:09;25.20;;;16.83;;
14876;SDS011;69691;48.172;17.070;2023-11-22T09:05:41;23.00;;;15.35;;
14876;SDS011;69691;48.172;17.070;2023-11-22T09:08:11;21.65;;;16.30;;
14876;SDS011;69691;48.172;17.070;2023-11-22T09:10:40;24.13;;;16.58;;
14876;SDS011;69691;48.172;17.070;2023-11-22T09:13:09;21.83;;;17.02;;
14876;SDS011;69691;48.172;17.070;2023-11-22T09:15:36;23.23;;;17.17;;
14876;SDS011;69691;48.172;17.070;2023-11-22T09:18:04;23.13;;;16.00;;
14876;SDS011;69691;48.172;17.070;2023-11-22T09:20:30;21.02;;;15.82;;
14876;SDS011;69691;48.172;17.070;2023-11-22T09:22:56;25.50;;;15.68;;
14876;SDS011;69691;48.172;17.070;2023-11-22T09:25:23;24.63;;;16.17;;
14876;SDS011;69691;48.172;17.070;2023-11-22T09:27:51;22.15;;;16.67;;
14876;SDS011;69691;48.172;17.070;2023-11-22T09:30:24;22.75;;;15.27;;
14876;SDS011;69691;48.172;17.070;2023-11-22T09:33:01;24.17;;;15.75;;
14876;SDS011;69691;48.172;17.070;2023-11-22T09:35:29;22.63;;;16.98;;
14876;SDS011;69691;48.172;17.070;2023-11-22T09:37:59;25.20;;;16.05;;
14876;SDS011;69691;48.172;17.070;2023-11-22T09:40:30;25.15;;;17.55;;
14876;SDS011;69691;48.172;17.070;2023-11-22T09:42:59;21.75;;;15.45;;
14876;SDS011;69691;48.172;17.070;2023-11-22T09:45:27;22.90;;;15.05;;
14876;SDS011;69691;48.172;17.070;2023-11-22T09:47:55;23.77;;;16.23;;
14876;SDS011;69691;48.172;17.070;2023-11-22T09:50:26;21.02;;;15.32;;
14876;SDS011;69691;48.172;17.070;2023-11-22T09:53:19;23.98;;;15.27;;
14876;SDS011;69691;48.172;17.070;2023-11-22T09:56:12;24.10;;;16.27;;
14876;SDS011;69691;48.172;17.070;2023-11-22T09:58:40;21.75;;;16.17;;
14876;SDS011;69691;48.172;17.070;2023-11-22T10:01:12;25.27;;;15.38;;
14876;SDS011;69691;48.172;17.070;2023-11-22T10:03:39;21.05;;;16.17;;
14876;SDS011;69691;48.172;17.070;2023-11-22T10:06:06;23.15;;;16.17;;
14876;SDS011;69691;48.172;17.070;2023-11-22T10:08:32;22.08;;;15.05;;
14876;SDS011;69691;48.172;17.070;2023-11-22T10:10:58;21.48;;;15.52;;
14876;SDS011;69691;48.172;17.070;2023-11-22T10:13:25;21.00;;;14.82;;
14876;SDS011;69691;48.172;17.070;2023-11-22T10:15:52;22.63;;;14.57;;
14876;SDS011;69691;48.172;17.070;2023-11-22T10:18:19;22.70;;;15.85;;
14876;SDS011;69691;48.172;17.070;2023-11-22T10:20:48;21.17;;;14.70;;
14876;SDS011;69691;48.172;17.070;2023-11-22T10:23:15;23.80;;;15.38;;
14876;SDS011;69691;48.172;17.070;2023-11-22T10:25:45;20.75;;;16.05;;
14876;SDS011;69691;48.172;17.070;2023-11-22T10:28:18;26.88;;;15.73;;
14876;SDS011;69691;48.172;17.070;2023-11-22T10:30:45;26.02;;;16.08;;
14876;SDS011;69691;48.172;17.070;2023-11-22T10:33:12;22.35;;;14.65;;
14876;SDS011;69691;48.172;17.070;2023-11-22T10:35:45;20.30;;;15.18;;
14876;SDS011;69691;48.172;17.070;2023-11-22T10:38:22;19.83;;;13.88;;
14876;SDS011;69691;48.172;17.070;2023-11-22T10:40:48;18.25;;;14.38;;
14876;SDS011;69691;48.172;17.070;2023-11-22T10:43:17;22.35;;;16.00;;
14876;SDS011;69691;48.172;17.070;2023-11-22T10:45:44;27.40;;;16.42;;
14876;SDS011;69691;48.172;17.070;2023-11-22T10:48:14;24.02;;;16.05;;
14876;SDS011;69691;48.172;17.070;2023-11-22T10:50:41;20.20;;;15.48;;
14876;SDS011;69691;48.172;17.070;2023-11-22T10:53:11;19.52;;;14.50;;
14876;SDS011;69691;48.172;17.070;2023-11-22T10:55:42;22.40;;;14.23;;
14876;SDS011;69691;48.172;17.070;2023-11-22T10:58:12;20.45;;;15.68;;
14876;SDS011;69691;48.172;17.070;2023-11-22T11:00:41;22.90;;;15.77;;
14876;SDS011;69691;48.172;17.070;2023-11-22T11:03:11;22.50;;;17.05;;
14876;SDS011;69691;48.172;17.070;2023-11-22T11:05:46;24.65;;;16.25;;
14876;SDS011;69691;48.172;17.070;2023-11-22T11:08:21;22.63;;;15.95;;
14876;SDS011;69691;48.172;17.070;2023-11-22T11:10:52;23.20;;;16.58;;
14876;SDS011;69691;48.172;17.070;2023-11-22T11:13:21;26.42;;;16.23;;
14876;SDS011;69691;48.172;17.070;2023-11-22T11:15:48;23.90;;;17.00;;
14876;SDS011;69691;48.172;17.070;2023-11-22T11:18:15;21.77;;;15.23;;
14876;SDS011;69691;48.172;17.070;2023-11-22T11:20:49;22.50;;;16.08;;
14876;SDS011;69691;48.172;17.070;2023-11-22T11:23:27;34.88;;;18.98;;
14876;SDS011;69691;48.172;17.070;2023-11-22T11:25:55;27.17;;;19.02;;
14876;SDS011;69691;48.172;17.070;2023-11-22T11:28:27;28.80;;;18.92;;
14876;SDS011;69691;48.172;17.070;2023-11-22T11:31:09;28.20;;;19.98;;
14876;SDS011;69691;48.172;17.070;2023-11-22T11:33:52;28.13;;;19.25;;
14876;SDS011;69691;48.172;17.070;2023-11-22T11:36:21;32.35;;;20.23;;
14876;SDS011;69691;48.172;17.070;2023-11-22T11:38:57;25.70;;;19.35;;
14876;SDS011;69691;48.172;17.070;2023-11-22T11:41:29;25.55;;;18.73;;
14876;SDS011;69691;48.172;17.070;2023-11-22T11:44:03;30.02;;;19.08;;
14876;SDS011;69691;48.172;17.070;2023-11-22T11:46:32;30.02;;;19.30;;
14876;SDS011;69691;48.172;17.070;2023-11-22T11:48:58;34.20;;;20.63;;
14876;SDS011;69691;48.172;17.070;2023-11-22T11:51:25;31.88;;;20.65;;
14876;SDS011;69691;48.172;17.070;2023-11-22T11:53:53;31.27;;;20.27;;
14876;SDS011;69691;48.172;17.070;2023-11-22T11:56:20;30.23;;;21.33;;
14876;SDS011;69691;48.172;17.070;2023-11-22T11:58:48;32.67;;;20.10;;
14876;SDS011;69691;48.172;17.070;2023-11-22T12:01:15;29.38;;;20.33;;
14876;SDS011;69691;48.172;17.070;2023-11-22T12:03:43;27.42;;;19.85;;
14876;SDS011;69691;48.172;17.070;2023-11-22T12:06:09;28.15;;;19.48;;
14876;SDS011;69691;48.172;17.070;2023-11-22T12:08:35;30.08;;;20.27;;
14876;SDS011;69691;48.172;17.070;2023-11-22T12:11:02;30.10;;;19.88;;
14876;SDS011;69691;48.172;17.070;2023-11-22T12:13:35;25.60;;;18.75;;
14876;SDS011;69691;48.172;17.070;2023-11-22T12:16:15;28.77;;;20.17;;
14876;SDS011;69691;48.172;17.070;2023-11-22T12:18:44;27.70;;;19.60;;
14876;SDS011;69691;48.172;17.070;2023-11-22T12:21:16;32.15;;;21.35;;
14876;SDS011;69691;48.172;17.070;2023-11-22T12:23:43;35.22;;;20.83;;
14876;SDS011;69691;48.172;17.070;2023-11-22T12:26:12;30.05;;;21.15;;
14876;SDS011;69691;48.172;17.070;2023-11-22T12:28:40;30.90;;;21.50;;
14876;SDS011;69691;48.172;17.070;2023-11-22T12:31:11;32.63;;;21.10;;
14876;SDS011;69691;48.172;17.070;2023-11-22T12:33:40;34.42;;;22.02;;
14876;SDS011;69691;48.172;17.070;2023-11-22T12:36:08;30.85;;;21.75;;
14876;SDS011;69691;48.172;17.070;2023-11-22T12:38:38;33.60;;;21.95;;
14876;SDS011;69691;48.172;17.070;2023-11-22T12:41:05;33.90;;;22.52;;
14876;SDS011;69691;48.172;17.070;2023-11-22T12:43:32;32.60;;;22.48;;
14876;SDS011;69691;48.172;17.070;2023-11-22T12:46:08;33.25;;;22.35;;
14876;SDS011;69691;48.172;17.070;2023-11-22T12:48:38;33.75;;;21.83;;
14876;SDS011;69691;48.172;17.070;2023-11-22T12:51:14;34.20;;;21.85;;
14876;SDS011;69691;48.172;17.070;2023-11-22T12:53:42;33.13;;;22.48;;
14876;SDS011;69691;48.172;17.070;2023-11-22T12:56:12;31.38;;;21.23;;
14876;SDS011;69691;48.172;17.070;2023-11-22T12:58:38;33.63;;;21.80;;
14876;SDS011;69691;48.172;17.070;2023-11-22T13:01:04;37.50;;;24.40;;
14876;SDS011;69691;48.172;17.070;2023-11-22T13:03:30;36.75;;;25.20;;
14876;SDS011;69691;48.172;17.070;2023-11-22T13:05:57;38.38;;;25.02;;
14876;SDS011;69691;48.172;17.070;2023-11-22T13:08:23;35.85;;;24.75;;
14876;SDS011;69691;48.172;17.070;2023-11-22T13:10:54;41.25;;;24.33;;
14876;SDS011;69691;48.172;17.070;2023-11-22T13:13:25;35.78;;;23.10;;
14876;SDS011;69691;48.172;17.070;2023-11-22T13:15:52;39.83;;;24.63;;
14876;SDS011;69691;48.172;17.070;2023-11-22T13:18:18;31.25;;;22.52;;
14876;SDS011;69691;48.172;17.070;2023-11-22T13:20:44;37.45;;;24.30;;
14876;SDS011;69691;48.172;17.070;2023-11-22T13:23:11;37.65;;;23.67;;
14876;SDS011;69691;48.172;17.070;2023-11-22T13:25:38;37.90;;;23.75;;
14876;SDS011;69691;48.172;17.070;2023-11-22T13:28:06;38.65;;;25.45;;
14876;SDS011;69691;48.172;17.070;2023-11-22T13:30:34;39.78;;;24.55;;
14876;SDS011;69691;48.172;17.070;2023-11-22T13:33:01;33.60;;;22.80;;
14876;SDS011;69691;48.172;17.070;2023-11-22T13:35:28;37.80;;;24.10;;
14876;SDS011;69691;48.172;17.070;2023-11-22T13:37:58;36.35;;;23.52;;
14876;SDS011;69691;48.172;17.070;2023-11-22T13:40:27;37.95;;;24.27;;
14876;SDS011;69691;48.172;17.070;2023-11-22T13:42:57;39.97;;;24.33;;
14876;SDS011;69691;48.172;17.070;2023-11-22T13:45:23;42.83;;;25.65;;
14876;SDS011;69691;48.172;17.070;2023-11-22T13:47:51;43.42;;;25.35;;
14876;SDS011;69691;48.172;17.070;2023-11-22T13:50:23;42.03;;;25.30;;
14876;SDS011;69691;48.172;17.070;2023-11-22T13:52:52;39.60;;;25.80;;
14876;SDS011;69691;48.172;17.070;2023-11-22T13:55:19;41.45;;;26.95;;
14876;SDS011;69691;48.172;17.070;2023-11-22T13:57:49;46.05;;;25.65;;
14876;SDS011;69691;48.172;17.070;2023-11-22T14:00:28;42.08;;;25.65;;
14876;SDS011;69691;48.172;17.070;2023-11-22T14:03:00;41.63;;;25.90;;
14876;SDS011;69691;48.172;17.070;2023-11-22T14:05:31;39.83;;;25.88;;
14876;SDS011;69691;48.172;17.070;2023-11-22T14:08:00;43.08;;;26.02;;
14876;SDS011;69691;48.172;17.070;2023-11-22T14:10:26;46.42;;;25.60;;
14876;SDS011;69691;48.172;17.070;2023-11-22T14:12:52;41.63;;;26.08;;
14876;SDS011;69691;48.172;17.070;2023-11-22T14:15:18;47.75;;;27.15;;
14876;SDS011;69691;48.172;17.070;2023-11-22T14:17:45;51.28;;;29.27;;
14876;SDS011;69691;48.172;17.070;2023-11-22T14:20:14;49.25;;;28.08;;